createdAt,value
2023-07-28T00:03:05.011Z,75.24
2023-07-28T00:08:09.209Z,75.15
2023-07-28T00:13:13.437Z,75.04
2023-07-28T00:18:19.926Z,74.85
2023-07-28T00:23:23.896Z,74.82
2023-07-28T00:28:28.312Z,74.96
2023-07-28T00:33:32.582Z,74.95
2023-07-28T00:38:36.768Z,74.89
2023-07-28T00:43:41.053Z,74.57
2023-07-28T00:48:46.469Z,74.53
2023-07-28T00:53:50.607Z,74.69
2023-07-28T00:58:54.832Z,74.67
2023-07-28T01:04:00.063Z,74.39
2023-07-28T01:09:11.413Z,74.21
2023-07-28T01:14:15.541Z,73.79
2023-07-28T01:19:23.998Z,73.51
2023-07-28T01:24:50.872Z,73.34
2023-07-28T01:29:55.194Z,73.14
2023-07-28T01:34:59.262Z,73.21
2023-07-28T01:40:04.120Z,73.16
2023-07-28T01:45:09.401Z,72.99
2023-07-28T01:50:13.557Z,72.79
2023-07-28T01:55:17.614Z,72.57
2023-07-28T02:00:21.822Z,72.58
2023-07-28T02:05:26.189Z,72.61
2023-07-28T02:10:32.638Z,72.32
2023-07-28T02:15:38.434Z,72.14
2023-07-28T02:20:44.824Z,71.97
2023-07-28T02:25:49.157Z,71.98
2023-07-28T02:30:53.230Z,72.01
2023-07-28T02:35:58.539Z,72.12
2023-07-28T02:41:04.689Z,72.11
2023-07-28T02:46:08.625Z,72.26
2023-07-28T02:51:12.588Z,72.13
2023-07-28T02:56:16.708Z,71.94
2023-07-28T03:01:22.550Z,72.14
2023-07-28T03:06:26.621Z,72.38
2023-07-28T03:11:30.730Z,72.25
2023-07-28T03:16:35.237Z,72.07
2023-07-28T03:21:40.333Z,71.56
2023-07-28T03:26:44.592Z,71.64
2023-07-28T03:31:48.754Z,71.91
2023-07-28T03:36:53.090Z,72.26
2023-07-28T03:41:57.515Z,72.38
2023-07-28T03:47:01.890Z,72.52
2023-07-28T03:52:06.792Z,72.58
2023-07-28T03:57:11.789Z,72.61
2023-07-28T04:02:15.770Z,72.53
2023-07-28T04:07:19.821Z,72.46
2023-07-28T04:12:24.172Z,72.37
2023-07-28T04:17:29.527Z,72.28
2023-07-28T04:22:33.436Z,71.99
2023-07-28T04:27:37.486Z,71.61
2023-07-28T04:32:41.785Z,71.38
2023-07-28T04:37:46.319Z,71.55
2023-07-28T04:42:54.374Z,71.32
2023-07-28T04:47:58.575Z,71.00
2023-07-28T04:53:03.277Z,71.07
2023-07-28T04:58:08.419Z,70.96
2023-07-28T05:03:13.765Z,70.74
2023-07-28T05:08:17.781Z,70.57
2023-07-28T05:13:21.948Z,70.60
2023-07-28T05:18:25.888Z,70.41
2023-07-28T05:23:29.942Z,70.32
2023-07-28T05:28:37.328Z,70.34
2023-07-28T05:33:41.453Z,70.44
2023-07-28T05:38:45.600Z,70.44
2023-07-28T05:43:51.675Z,70.60
2023-07-28T05:48:57.686Z,70.30
2023-07-28T05:54:02.079Z,69.82
2023-07-28T05:59:05.943Z,69.73
2023-07-28T06:04:10.056Z,69.79
2023-07-28T06:09:14.364Z,68.97
2023-07-28T06:14:18.509Z,68.82
2023-07-28T06:19:25.537Z,68.54
2023-07-28T06:24:29.657Z,67.44
2023-07-28T06:29:33.789Z,66.62
2023-07-28T06:34:38.532Z,66.18
2023-07-28T06:39:42.412Z,66.18
2023-07-28T06:44:46.360Z,65.81
2023-07-28T06:49:50.417Z,65.71
2023-07-28T06:54:56.242Z,65.29
2023-07-28T07:00:01.751Z,65.02
2023-07-28T07:05:06.600Z,65.10
2023-07-28T07:10:11.149Z,65.39
2023-07-28T07:15:15.300Z,65.73
2023-07-28T07:20:19.301Z,66.00
2023-07-28T07:25:23.877Z,66.40
2023-07-28T07:30:28.098Z,66.89
2023-07-28T07:35:32.329Z,66.75
2023-07-28T07:40:38.685Z,66.96
2023-07-28T07:45:42.879Z,67.36
2023-07-28T07:50:47.133Z,67.78
2023-07-28T07:55:51.550Z,68.87
2023-07-28T08:00:56.777Z,69.79
2023-07-28T08:06:00.949Z,70.54
2023-07-28T08:11:05.893Z,71.80
2023-07-28T08:16:10.621Z,72.76
2023-07-28T08:21:14.762Z,73.64
2023-07-28T08:26:18.783Z,74.38
2023-07-28T08:31:22.846Z,74.57
2023-07-28T08:36:26.968Z,74.74
2023-07-28T08:41:31.090Z,75.10
2023-07-28T08:46:37.021Z,75.57
2023-07-28T08:51:44.117Z,76.13
2023-07-28T08:56:48.311Z,76.88
2023-07-28T09:01:54.204Z,77.86
2023-07-28T09:07:00.468Z,78.53
2023-07-28T09:12:05.582Z,79.65
2023-07-28T09:17:15.081Z,80.42
2023-07-28T09:22:20.783Z,80.28
2023-07-28T09:27:30.582Z,80.71
2023-07-28T09:32:37.040Z,80.81
2023-07-28T09:37:44.942Z,81.31
2023-07-28T09:42:54.434Z,81.68
2023-07-28T09:48:06.564Z,81.38
2023-07-28T09:53:14.778Z,81.57
2023-07-28T09:58:23.476Z,81.68
2023-07-28T10:03:28.291Z,81.43
2023-07-28T10:08:34.416Z,81.48
2023-07-28T10:13:44.394Z,81.93
2023-07-28T10:18:58.334Z,81.70
2023-07-28T10:24:02.600Z,81.79
2023-07-28T10:29:16.662Z,81.34
2023-07-28T10:34:23.339Z,81.26
2023-07-28T10:39:27.903Z,81.21
2023-07-28T10:44:34.306Z,80.86
2023-07-28T10:49:38.516Z,81.07
2023-07-28T10:54:44.170Z,81.33
2023-07-28T10:59:48.626Z,81.21
2023-07-28T11:04:52.796Z,81.14
2023-07-28T11:09:56.906Z,80.99
2023-07-28T11:15:01.446Z,80.79
2023-07-28T11:20:19.892Z,80.72
2023-07-28T11:25:27.106Z,80.49
2023-07-28T11:30:32.815Z,80.54
2023-07-28T11:35:37.531Z,80.32
2023-07-28T11:40:43.238Z,80.14
2023-07-28T11:45:47.634Z,80.33
2023-07-28T11:50:55.140Z,80.49
2023-07-28T11:55:59.495Z,80.64
2023-07-28T12:01:10.830Z,80.61
2023-07-28T12:21:56.617Z,79.40
2023-07-28T12:27:00.748Z,79.31
2023-07-28T12:32:05.229Z,79.38
2023-07-28T12:37:11.830Z,79.36
2023-07-28T12:42:21.599Z,79.17
2023-07-28T12:47:43.277Z,78.76
2023-07-28T12:57:56.173Z,78.06
2023-07-28T13:03:00.739Z,77.63
2023-07-28T13:13:14.460Z,76.38
2023-07-28T13:18:19.159Z,75.47
2023-07-28T13:23:23.416Z,74.39
2023-07-28T13:28:27.540Z,74.29
2023-07-28T13:33:32.931Z,74.13
2023-07-28T13:38:37.643Z,73.40
2023-07-28T13:43:42.280Z,71.18
2023-07-28T13:48:53.734Z,70.97
2023-07-28T13:59:06.870Z,70.19
2023-07-28T14:09:58.524Z,68.71
2023-07-28T14:15:02.918Z,67.91
2023-07-28T14:20:08.430Z,67.87
2023-07-28T14:25:12.429Z,67.43
2023-07-28T14:30:16.511Z,67.47
2023-07-28T14:35:21.060Z,67.70
2023-07-28T14:40:25.236Z,67.38
2023-07-28T14:45:29.646Z,67.67
2023-07-28T14:50:34.415Z,67.84
2023-07-28T14:55:38.534Z,68.07
2023-07-28T15:00:45.291Z,67.65
2023-07-28T15:05:54.424Z,67.71
2023-07-28T15:11:04.281Z,67.92
2023-07-28T15:16:18.760Z,67.50
2023-07-28T15:21:29.511Z,67.18
2023-07-28T15:26:40.280Z,66.86
2023-07-28T15:31:51.512Z,67.43
2023-07-28T15:37:09.892Z,66.88
2023-07-28T15:42:23.820Z,66.83
2023-07-28T15:47:35.474Z,67.18
2023-07-28T15:52:48.487Z,67.39
2023-07-28T15:57:59.571Z,67.88
2023-07-28T16:03:07.810Z,67.91
2023-07-28T16:08:23.137Z,68.56
2023-07-28T16:13:43.858Z,69.02
2023-07-28T16:19:12.021Z,68.68
2023-07-28T16:24:56.082Z,67.06
2023-07-28T16:30:23.803Z,66.31
2023-07-28T16:41:27.105Z,66.58
2023-07-28T16:46:47.262Z,66.98
2023-07-28T16:52:06.176Z,66.95
2023-07-28T16:57:22.454Z,67.04
2023-07-28T17:02:52.513Z,66.71
2023-07-28T17:08:09.278Z,66.50
2023-07-28T17:13:18.753Z,66.36
2023-07-28T17:18:48.257Z,66.57
2023-07-28T17:29:31.419Z,67.57
2023-07-28T17:34:42.014Z,68.15
2023-07-28T17:39:50.744Z,68.21
2023-07-28T17:44:54.768Z,68.31
2023-07-28T17:49:59.331Z,68.39
2023-07-28T17:55:04.075Z,68.66
2023-07-28T18:00:09.757Z,69.17
2023-07-28T18:05:13.785Z,69.50
2023-07-28T18:10:18.616Z,69.96
2023-07-28T18:21:10.225Z,71.26
2023-07-28T18:26:14.865Z,71.68
2023-07-28T18:31:19.344Z,71.91
2023-07-28T18:36:23.638Z,72.32
2023-07-28T18:41:27.749Z,72.65
2023-07-28T18:46:32.247Z,72.87
2023-07-28T18:51:37.236Z,73.14
2023-07-28T18:56:43.581Z,73.20
2023-07-28T19:01:47.498Z,73.25
2023-07-28T19:06:52.427Z,73.36
2023-07-28T19:11:56.461Z,73.65
2023-07-28T19:17:00.474Z,73.96
2023-07-28T19:22:08.274Z,74.32
2023-07-28T19:27:17.608Z,74.66
2023-07-28T19:32:22.749Z,74.89
2023-07-28T19:37:42.996Z,75.00
2023-07-28T19:42:49.219Z,75.22
2023-07-28T19:47:53.763Z,75.50
2023-07-28T19:52:59.728Z,75.81
2023-07-28T19:58:04.801Z,76.01
2023-07-28T20:03:09.106Z,76.32
2023-07-28T20:08:13.581Z,76.56
2023-07-28T20:13:17.239Z,76.79
2023-07-28T20:18:22.941Z,77.06
2023-07-28T20:23:30.192Z,77.14
2023-07-28T20:28:52.670Z,77.00
2023-07-28T20:33:58.245Z,76.75
2023-07-28T20:39:03.034Z,76.67
2023-07-28T20:44:07.610Z,76.54
2023-07-28T20:49:12.931Z,76.51
2023-07-28T20:54:26.518Z,76.34
2023-07-28T20:59:45.408Z,76.28
2023-07-28T21:05:03.507Z,76.32
2023-07-28T21:10:34.095Z,76.47
2023-07-28T21:15:43.493Z,76.74
2023-07-28T21:20:48.288Z,77.04
2023-07-28T21:25:52.564Z,77.17
2023-07-28T21:30:56.609Z,77.29
2023-07-28T21:36:00.725Z,77.55
2023-07-28T21:41:06.990Z,77.68
2023-07-28T21:46:10.880Z,77.77
2023-07-28T21:51:14.960Z,77.91
2023-07-28T21:56:31.536Z,78.33
2023-07-28T22:01:35.659Z,78.76
2023-07-28T22:06:42.477Z,78.94
2023-07-28T22:11:47.047Z,78.82
2023-07-28T22:16:58.366Z,78.63
2023-07-28T22:22:06.874Z,78.54
2023-07-28T22:27:12.480Z,78.39
2023-07-28T22:32:16.431Z,78.39
2023-07-28T22:37:21.202Z,78.52
2023-07-28T22:42:25.927Z,78.59
2023-07-28T22:47:31.686Z,78.51
2023-07-28T22:52:36.510Z,78.65
2023-07-28T22:57:40.746Z,78.92
2023-07-28T23:02:44.813Z,79.20
2023-07-28T23:07:48.913Z,79.39
2023-07-28T23:12:54.383Z,79.54
2023-07-28T23:17:59.963Z,79.86
2023-07-28T23:23:05.507Z,79.98
2023-07-28T23:28:09.344Z,80.02
2023-07-28T23:33:13.692Z,79.76
2023-07-28T23:38:17.930Z,79.75
2023-07-28T23:43:21.942Z,79.74
2023-07-28T23:48:29.207Z,80.09
2023-07-28T23:53:33.187Z,80.04
2023-07-28T23:58:37.222Z,79.69
